sensor_id;sensor_type;location;lat;lon;timestamp;pressure;altitude;pressure_sealevel;temperature;humidity
51530;BME280;37613;51.788;21.582;2023-07-20T05:39:14;99513.90;;;14.72;76.68
51530;BME280;37613;51.788;21.582;2023-07-20T05:43:18;99505.88;;;14.68;76.29
51530;BME280;37613;51.788;21.582;2023-07-20T05:47:19;99500.71;;;14.68;76.44
51530;BME280;37613;51.788;21.582;2023-07-20T05:51:20;99498.31;;;14.66;77.40
51530;BME280;37613;51.788;21.582;2023-07-20T05:55:22;99497.48;;;14.59;78.60
51530;BME280;37613;51.788;21.582;2023-07-20T05:59:24;99504.14;;;14.54;78.85
51530;BME280;37613;51.788;21.582;2023-07-20T06:03:25;99492.28;;;14.48;78.92
51530;BME280;37613;51.788;21.582;2023-07-20T06:07:26;99493.02;;;14.40;80.67
51530;BME280;37613;51.788;21.582;2023-07-20T06:11:28;99478.06;;;14.35;80.45
51530;BME280;37613;51.788;21.582;2023-07-20T06:15:32;99462.19;;;14.34;84.53
51530;BME280;37613;51.788;21.582;2023-07-20T06:19:36;99451.76;;;14.32;84.24
51530;BME280;37613;51.788;21.582;2023-07-20T06:23:38;99442.61;;;14.32;83.76
51530;BME280;37613;51.788;21.582;2023-07-20T06:27:39;99425.13;;;14.32;84.74
51530;BME280;37613;51.788;21.582;2023-07-20T06:31:41;99420.88;;;14.33;85.65
51530;BME280;37613;51.788;21.582;2023-07-20T06:35:45;99427.06;;;14.36;86.59
51530;BME280;37613;51.788;21.582;2023-07-20T06:39:48;99430.45;;;14.43;85.70
51530;BME280;37613;51.788;21.582;2023-07-20T06:43:49;99431.64;;;14.56;85.00
51530;BME280;37613;51.788;21.582;2023-07-20T06:47:51;99429.61;;;14.76;86.97
51530;BME280;37613;51.788;21.582;2023-07-20T06:51:56;99428.75;;;14.92;88.70
51530;BME280;37613;51.788;21.582;2023-07-20T06:56:01;99424.13;;;15.03;87.76
51530;BME280;37613;51.788;21.582;2023-07-20T07:00:06;99416.91;;;15.18;86.99
51530;BME280;37613;51.788;21.582;2023-07-20T07:04:08;99424.06;;;15.30;86.25
51530;BME280;37613;51.788;21.582;2023-07-20T07:08:09;99423.48;;;15.44;85.33
51530;BME280;37613;51.788;21.582;2023-07-20T07:12:10;99431.85;;;15.56;85.37
51530;BME280;37613;51.788;21.582;2023-07-20T07:16:12;99437.55;;;15.68;85.80
51530;BME280;37613;51.788;21.582;2023-07-20T07:20:16;99442.71;;;15.80;86.37
51530;BME280;37613;51.788;21.582;2023-07-20T07:24:17;99443.21;;;15.82;86.36
51530;BME280;37613;51.788;21.582;2023-07-20T07:28:19;99447.82;;;15.87;85.52
51530;BME280;37613;51.788;21.582;2023-07-20T07:32:23;99448.31;;;16.01;85.81
51530;BME280;37613;51.788;21.582;2023-07-20T07:36:28;99460.55;;;16.18;85.91
51530;BME280;37613;51.788;21.582;2023-07-20T07:40:29;99465.73;;;16.34;85.59
51530;BME280;37613;51.788;21.582;2023-07-20T07:44:33;99470.20;;;16.48;85.67
51530;BME280;37613;51.788;21.582;2023-07-20T07:48:35;99471.27;;;16.58;85.53
51530;BME280;37613;51.788;21.582;2023-07-20T07:52:39;99475.23;;;16.65;85.68
51530;BME280;37613;51.788;21.582;2023-07-20T07:56:41;99484.01;;;16.70;86.31
51530;BME280;37613;51.788;21.582;2023-07-20T08:00:42;99488.85;;;16.73;85.79
51530;BME280;37613;51.788;21.582;2023-07-20T08:04:45;99492.13;;;16.80;85.69
51530;BME280;37613;51.788;21.582;2023-07-20T08:08:50;99496.61;;;16.86;85.93
51530;BME280;37613;51.788;21.582;2023-07-20T08:12:51;99496.51;;;16.95;86.08
51530;BME280;37613;51.788;21.582;2023-07-20T08:16:56;99501.35;;;17.06;86.68
51530;BME280;37613;51.788;21.582;2023-07-20T08:20:57;99505.30;;;17.22;87.67
51530;BME280;37613;51.788;21.582;2023-07-20T08:25:00;99506.70;;;17.37;87.61
51530;BME280;37613;51.788;21.582;2023-07-20T08:29:01;99509.45;;;17.59;87.32
51530;BME280;37613;51.788;21.582;2023-07-20T08:33:03;99515.33;;;17.84;86.76
51530;BME280;37613;51.788;21.582;2023-07-20T08:37:05;99519.05;;;18.11;86.49
51530;BME280;37613;51.788;21.582;2023-07-20T08:41:07;99519.39;;;18.28;86.11
51530;BME280;37613;51.788;21.582;2023-07-20T08:45:12;99519.86;;;18.37;85.80
51530;BME280;37613;51.788;21.582;2023-07-20T08:49:16;99524.02;;;18.41;85.41
51530;BME280;37613;51.788;21.582;2023-07-20T08:53:20;99537.84;;;18.36;85.16
51530;BME280;37613;51.788;21.582;2023-07-20T08:57:21;99548.80;;;18.28;84.99
51530;BME280;37613;51.788;21.582;2023-07-20T09:01:29;99555.91;;;18.22;84.96
51530;BME280;37613;51.788;21.582;2023-07-20T09:05:31;99561.55;;;18.06;84.88
51530;BME280;37613;51.788;21.582;2023-07-20T09:09:39;99560.21;;;17.90;84.76
51530;BME280;37613;51.788;21.582;2023-07-20T09:13:41;99558.19;;;17.74;84.73
51530;BME280;37613;51.788;21.582;2023-07-20T09:17:50;99560.54;;;17.67;85.18
51530;BME280;37613;51.788;21.582;2023-07-20T09:21:52;99556.73;;;17.67;85.21
51530;BME280;37613;51.788;21.582;2023-07-20T09:25:53;99559.91;;;17.71;85.14
51530;BME280;37613;51.788;21.582;2023-07-20T09:29:56;99565.70;;;17.69;85.03
51530;BME280;37613;51.788;21.582;2023-07-20T09:33:57;99572.25;;;17.67;85.05
51530;BME280;37613;51.788;21.582;2023-07-20T09:38:00;99579.59;;;17.68;85.18
51530;BME280;37613;51.788;21.582;2023-07-20T09:42:02;99576.27;;;17.69;85.27
51530;BME280;37613;51.788;21.582;2023-07-20T09:46:05;99576.20;;;17.73;85.65
51530;BME280;37613;51.788;21.582;2023-07-20T09:50:07;99579.48;;;17.83;85.74
51530;BME280;37613;51.788;21.582;2023-07-20T09:54:16;99574.88;;;17.89;86.60
51530;BME280;37613;51.788;21.582;2023-07-20T09:58:18;99573.66;;;17.95;86.36
51530;BME280;37613;51.788;21.582;2023-07-20T10:02:21;99575.09;;;18.07;86.65
51530;BME280;37613;51.788;21.582;2023-07-20T10:06:24;99575.30;;;18.22;86.41
51530;BME280;37613;51.788;21.582;2023-07-20T10:10:26;99579.84;;;18.39;86.34
51530;BME280;37613;51.788;21.582;2023-07-20T10:14:31;99584.34;;;18.56;86.19
51530;BME280;37613;51.788;21.582;2023-07-20T10:18:49;99585.88;;;18.67;86.03
51530;BME280;37613;51.788;21.582;2023-07-20T10:22:56;99588.91;;;18.77;85.88
51530;BME280;37613;51.788;21.582;2023-07-20T10:26:58;99590.96;;;18.81;85.62
51530;BME280;37613;51.788;21.582;2023-07-20T10:30:59;99593.45;;;18.83;85.34
51530;BME280;37613;51.788;21.582;2023-07-20T10:35:15;99592.40;;;18.82;85.22
51530;BME280;37613;51.788;21.582;2023-07-20T10:39:27;99587.41;;;18.93;85.30
51530;BME280;37613;51.788;21.582;2023-07-20T10:43:29;99589.55;;;19.02;85.15
51530;BME280;37613;51.788;21.582;2023-07-20T10:47:45;99584.92;;;19.16;85.34
51530;BME280;37613;51.788;21.582;2023-07-20T10:51:48;99580.71;;;19.54;85.41
51530;BME280;37613;51.788;21.582;2023-07-20T10:56:08;99576.26;;;19.88;84.58
51530;BME280;37613;51.788;21.582;2023-07-20T11:00:13;99569.86;;;19.94;82.23
51530;BME280;37613;51.788;21.582;2023-07-20T11:04:16;99568.44;;;19.97;81.98
51530;BME280;37613;51.788;21.582;2023-07-20T11:08:42;99572.64;;;20.13;81.51
51530;BME280;37613;51.788;21.582;2023-07-20T11:12:52;99572.45;;;20.33;81.77
51530;BME280;37613;51.788;21.582;2023-07-20T11:17:11;99566.08;;;20.66;79.97
51530;BME280;37613;51.788;21.582;2023-07-20T11:21:14;99562.52;;;21.03;78.80
51530;BME280;37613;51.788;21.582;2023-07-20T11:25:16;99564.13;;;21.32;78.50
51530;BME280;37613;51.788;21.582;2023-07-20T11:29:19;99566.13;;;21.52;78.21
51530;BME280;37613;51.788;21.582;2023-07-20T11:33:21;99564.10;;;21.55;76.88
51530;BME280;37613;51.788;21.582;2023-07-20T11:37:25;99564.73;;;21.68;77.16
51530;BME280;37613;51.788;21.582;2023-07-20T11:41:27;99558.83;;;21.73;75.16
51530;BME280;37613;51.788;21.582;2023-07-20T11:45:38;99551.81;;;21.79;75.58
51530;BME280;37613;51.788;21.582;2023-07-20T11:49:41;99544.27;;;21.88;74.57
51530;BME280;37613;51.788;21.582;2023-07-20T11:53:44;99544.43;;;21.81;72.21
51530;BME280;37613;51.788;21.582;2023-07-20T11:58:07;99546.17;;;21.68;72.44
51530;BME280;37613;51.788;21.582;2023-07-20T12:02:11;99540.66;;;21.62;72.40
51530;BME280;37613;51.788;21.582;2023-07-20T12:06:13;99538.23;;;21.54;71.62
51530;BME280;37613;51.788;21.582;2023-07-20T12:10:14;99536.30;;;21.43;71.80
51530;BME280;37613;51.788;21.582;2023-07-20T12:14:17;99539.63;;;21.52;71.65
51530;BME280;37613;51.788;21.582;2023-07-20T12:18:18;99546.23;;;21.62;71.06
51530;BME280;37613;51.788;21.582;2023-07-20T12:22:19;99541.98;;;21.69;70.96
51530;BME280;37613;51.788;21.582;2023-07-20T12:26:20;99542.21;;;21.78;70.39
51530;BME280;37613;51.788;21.582;2023-07-20T12:30:28;99546.17;;;21.76;70.19
51530;BME280;37613;51.788;21.582;2023-07-20T12:34:29;99542.05;;;21.39;69.70
51530;BME280;37613;51.788;21.582;2023-07-20T12:38:30;99534.33;;;21.02;70.02
51530;BME280;37613;51.788;21.582;2023-07-20T12:42:32;99528.55;;;20.94;70.39
51530;BME280;37613;51.788;21.582;2023-07-20T12:46:33;99516.69;;;21.02;70.39
51530;BME280;37613;51.788;21.582;2023-07-20T12:50:37;99511.73;;;20.99;70.19
51530;BME280;37613;51.788;21.582;2023-07-20T12:54:41;99497.66;;;21.05;70.07
51530;BME280;37613;51.788;21.582;2023-07-20T12:58:43;99489.65;;;21.11;69.77
51530;BME280;37613;51.788;21.582;2023-07-20T13:02:47;99495.44;;;21.41;70.14
51530;BME280;37613;51.788;21.582;2023-07-20T13:06:48;99501.01;;;21.56;69.32
51530;BME280;37613;51.788;21.582;2023-07-20T13:10:50;99498.48;;;21.52;68.87
51530;BME280;37613;51.788;21.582;2023-07-20T13:14:56;99499.93;;;21.49;69.21
51530;BME280;37613;51.788;21.582;2023-07-20T13:18:57;99498.70;;;21.62;69.39
51530;BME280;37613;51.788;21.582;2023-07-20T13:23:01;99495.48;;;21.80;69.21
51530;BME280;37613;51.788;21.582;2023-07-20T13:27:03;99495.51;;;21.89;68.97
51530;BME280;37613;51.788;21.582;2023-07-20T13:31:05;99494.24;;;21.90;68.46
51530;BME280;37613;51.788;21.582;2023-07-20T13:35:07;99492.95;;;21.86;68.21
51530;BME280;37613;51.788;21.582;2023-07-20T13:39:11;99491.14;;;21.74;67.83
51530;BME280;37613;51.788;21.582;2023-07-20T13:43:13;99493.70;;;21.60;67.17
51530;BME280;37613;51.788;21.582;2023-07-20T13:47:17;99495.98;;;21.42;66.27
51530;BME280;37613;51.788;21.582;2023-07-20T13:51:19;99501.27;;;21.20;66.46
51530;BME280;37613;51.788;21.582;2023-07-20T13:55:20;99501.07;;;21.00;65.67
51530;BME280;37613;51.788;21.582;2023-07-20T13:59:22;99497.63;;;20.82;65.80
51530;BME280;37613;51.788;21.582;2023-07-20T14:03:24;99496.83;;;20.72;66.88
51530;BME280;37613;51.788;21.582;2023-07-20T14:07:25;99495.95;;;20.56;67.92
51530;BME280;37613;51.788;21.582;2023-07-20T14:11:29;99493.72;;;20.44;67.86
51530;BME280;37613;51.788;21.582;2023-07-20T14:15:35;99508.46;;;20.37;68.10
51530;BME280;37613;51.788;21.582;2023-07-20T14:19:37;99517.38;;;20.29;68.45
51530;BME280;37613;51.788;21.582;2023-07-20T14:23:38;99514.35;;;20.11;68.93
51530;BME280;37613;51.788;21.582;2023-07-20T14:27:43;99525.30;;;19.94;69.36
51530;BME280;37613;51.788;21.582;2023-07-20T14:31:47;99526.17;;;19.74;70.58
51530;BME280;37613;51.788;21.582;2023-07-20T14:35:53;99530.95;;;19.60;70.52
51530;BME280;37613;51.788;21.582;2023-07-20T14:39:57;99538.48;;;19.52;71.42
51530;BME280;37613;51.788;21.582;2023-07-20T14:44:01;99539.09;;;19.41;72.42
51530;BME280;37613;51.788;21.582;2023-07-20T14:48:03;99543.23;;;19.28;72.94
51530;BME280;37613;51.788;21.582;2023-07-20T14:52:10;99542.98;;;19.23;73.33
51530;BME280;37613;51.788;21.582;2023-07-20T14:56:11;99541.86;;;19.23;73.13
51530;BME280;37613;51.788;21.582;2023-07-20T15:00:15;99538.39;;;19.26;73.71
51530;BME280;37613;51.788;21.582;2023-07-20T15:04:23;99538.43;;;19.28;74.30
51530;BME280;37613;51.788;21.582;2023-07-20T15:08:24;99527.08;;;19.29;75.83
51530;BME280;37613;51.788;21.582;2023-07-20T15:12:26;99520.65;;;19.26;76.46
51530;BME280;37613;51.788;21.582;2023-07-20T15:16:27;99519.48;;;19.24;76.39
51530;BME280;37613;51.788;21.582;2023-07-20T15:20:31;99508.83;;;19.24;76.01
51530;BME280;37613;51.788;21.582;2023-07-20T15:24:59;99497.36;;;19.32;75.80
51530;BME280;37613;51.788;21.582;2023-07-20T15:29:19;99480.83;;;19.44;75.27
51530;BME280;37613;51.788;21.582;2023-07-20T15:33:25;99468.58;;;19.57;75.07
51530;BME280;37613;51.788;21.582;2023-07-20T15:37:26;99495.38;;;19.63;75.61
51530;BME280;37613;51.788;21.582;2023-07-20T15:41:27;99509.63;;;19.56;75.17
51530;BME280;37613;51.788;21.582;2023-07-20T15:45:29;99505.52;;;19.51;74.79
51530;BME280;37613;51.788;21.582;2023-07-20T15:49:56;99514.72;;;19.50;74.55
51530;BME280;37613;51.788;21.582;2023-07-20T15:54:00;99516.52;;;19.53;74.51
51530;BME280;37613;51.788;21.582;2023-07-20T15:58:13;99523.31;;;19.60;74.31
51530;BME280;37613;51.788;21.582;2023-07-20T16:02:20;99532.36;;;19.65;73.98
51530;BME280;37613;51.788;21.582;2023-07-20T16:06:25;99537.23;;;19.73;73.91
51530;BME280;37613;51.788;21.582;2023-07-20T16:10:26;99539.16;;;19.97;74.05
51530;BME280;37613;51.788;21.582;2023-07-20T16:14:27;99539.83;;;20.11;73.77
51530;BME280;37613;51.788;21.582;2023-07-20T16:18:32;99529.67;;;20.14;73.63
51530;BME280;37613;51.788;21.582;2023-07-20T16:22:45;99528.12;;;20.10;73.49
51530;BME280;37613;51.788;21.582;2023-07-20T16:26:46;99529.79;;;20.05;73.44
51530;BME280;37613;51.788;21.582;2023-07-20T16:30:48;99527.36;;;20.01;73.53
51530;BME280;37613;51.788;21.582;2023-07-20T16:34:52;99527.05;;;20.01;73.65
51530;BME280;37613;51.788;21.582;2023-07-20T16:38:53;99525.15;;;19.92;73.34
51530;BME280;37613;51.788;21.582;2023-07-20T16:42:58;99529.55;;;19.81;73.27
51530;BME280;37613;51.788;21.582;2023-07-20T16:47:02;99535.40;;;19.74;73.31
51530;BME280;37613;51.788;21.582;2023-07-20T16:51:03;99537.67;;;19.66;73.24
51530;BME280;37613;51.788;21.582;2023-07-20T16:55:06;99545.18;;;19.60;73.29
51530;BME280;37613;51.788;21.582;2023-07-20T16:59:07;99549.27;;;19.55;73.38
51530;BME280;37613;51.788;21.582;2023-07-20T17:03:08;99547.80;;;19.50;73.41
51530;BME280;37613;51.788;21.582;2023-07-20T17:07:10;99550.13;;;19.43;73.64
51530;BME280;37613;51.788;21.582;2023-07-20T17:11:11;99552.21;;;19.30;73.97
51530;BME280;37613;51.788;21.582;2023-07-20T17:15:15;99551.48;;;19.15;73.60
51530;BME280;37613;51.788;21.582;2023-07-20T17:19:17;99558.30;;;18.99;74.38
51530;BME280;37613;51.788;21.582;2023-07-20T17:23:21;99562.38;;;18.83;73.97
51530;BME280;37613;51.788;21.582;2023-07-20T17:27:32;99564.28;;;18.71;74.06
51530;BME280;37613;51.788;21.582;2023-07-20T17:31:34;99558.41;;;18.62;74.10
51530;BME280;37613;51.788;21.582;2023-07-20T17:35:36;99569.91;;;18.55;74.39
51530;BME280;37613;51.788;21.582;2023-07-20T17:39:37;99605.58;;;18.46;74.69
51530;BME280;37613;51.788;21.582;2023-07-20T17:43:38;99636.41;;;18.23;76.18
51530;BME280;37613;51.788;21.582;2023-07-20T17:47:40;99615.55;;;17.72;76.10
51530;BME280;37613;51.788;21.582;2023-07-20T17:51:42;99606.14;;;17.34;75.58
51530;BME280;37613;51.788;21.582;2023-07-20T17:55:54;99602.02;;;17.13;75.70
51530;BME280;37613;51.788;21.582;2023-07-20T17:59:56;99603.56;;;17.06;75.97
51530;BME280;37613;51.788;21.582;2023-07-20T18:03:58;99602.15;;;17.01;76.29
51530;BME280;37613;51.788;21.582;2023-07-20T18:08:00;99600.02;;;16.91;76.21
51530;BME280;37613;51.788;21.582;2023-07-20T18:12:03;99591.73;;;16.76;76.17
51530;BME280;37613;51.788;21.582;2023-07-20T18:16:05;99596.36;;;16.64;76.77
51530;BME280;37613;51.788;21.582;2023-07-20T18:20:08;99599.83;;;16.52;76.68
51530;BME280;37613;51.788;21.582;2023-07-20T18:24:10;99606.15;;;16.39;76.93
51530;BME280;37613;51.788;21.582;2023-07-20T18:28:12;99617.98;;;16.21;77.37
51530;BME280;37613;51.788;21.582;2023-07-20T18:32:14;99622.83;;;15.91;77.66
51530;BME280;37613;51.788;21.582;2023-07-20T18:36:15;99624.23;;;15.60;77.65
51530;BME280;37613;51.788;21.582;2023-07-20T18:40:17;99614.36;;;15.41;78.11
51530;BME280;37613;51.788;21.582;2023-07-20T18:44:25;99614.83;;;15.32;78.39
51530;BME280;37613;51.788;21.582;2023-07-20T18:48:36;99617.98;;;15.25;78.56
51530;BME280;37613;51.788;21.582;2023-07-20T18:52:45;99624.45;;;15.16;78.60
51530;BME280;37613;51.788;21.582;2023-07-20T18:57:04;99628.58;;;15.05;79.01
51530;BME280;37613;51.788;21.582;2023-07-20T19:01:06;99642.39;;;14.91;79.30
51530;BME280;37613;51.788;21.582;2023-07-20T19:05:08;99659.39;;;14.71;79.40
51530;BME280;37613;51.788;21.582;2023-07-20T19:09:10;99666.48;;;14.55;80.90
51530;BME280;37613;51.788;21.582;2023-07-20T19:13:12;99670.42;;;14.42;80.51
51530;BME280;37613;51.788;21.582;2023-07-20T19:17:16;99676.73;;;14.38;80.90
51530;BME280;37613;51.788;21.582;2023-07-20T19:21:18;99681.08;;;14.32;80.80
51530;BME280;37613;51.788;21.582;2023-07-20T19:25:21;99685.98;;;14.29;80.79
51530;BME280;37613;51.788;21.582;2023-07-20T19:29:28;99682.34;;;14.28;80.77
51530;BME280;37613;51.788;21.582;2023-07-20T19:33:30;99680.94;;;14.25;81.10
51530;BME280;37613;51.788;21.582;2023-07-20T19:37:31;99684.90;;;14.21;81.15
51530;BME280;37613;51.788;21.582;2023-07-20T19:41:36;99691.10;;;14.14;81.10
51530;BME280;37613;51.788;21.582;2023-07-20T19:45:38;99695.40;;;14.10;81.25
51530;BME280;37613;51.788;21.582;2023-07-20T19:49:41;99704.31;;;14.06;81.43
51530;BME280;37613;51.788;21.582;2023-07-20T19:53:44;99707.89;;;14.03;81.48
51530;BME280;37613;51.788;21.582;2023-07-20T19:57:47;99705.06;;;14.00;81.60
51530;BME280;37613;51.788;21.582;2023-07-20T20:01:50;99696.91;;;13.99;81.95
51530;BME280;37613;51.788;21.582;2023-07-20T20:05:54;99693.94;;;13.97;81.99
51530;BME280;37613;51.788;21.582;2023-07-20T20:09:57;99695.71;;;13.93;81.83
51530;BME280;37613;51.788;21.582;2023-07-20T20:13:58;99699.02;;;13.87;82.04
51530;BME280;37613;51.788;21.582;2023-07-20T20:18:00;99697.33;;;13.81;81.97
51530;BME280;37613;51.788;21.582;2023-07-20T20:22:02;99696.42;;;13.75;82.14
51530;BME280;37613;51.788;21.582;2023-07-20T20:26:06;99694.80;;;13.69;82.19
51530;BME280;37613;51.788;21.582;2023-07-20T20:30:10;99701.38;;;13.61;82.13
51530;BME280;37613;51.788;21.582;2023-07-20T20:34:15;99708.09;;;13.51;82.31
51530;BME280;37613;51.788;21.582;2023-07-20T20:38:18;99718.73;;;13.39;82.19
51530;BME280;37613;51.788;21.582;2023-07-20T20:42:20;99717.95;;;13.29;82.40
51530;BME280;37613;51.788;21.582;2023-07-20T20:46:22;99723.31;;;13.23;82.54
51530;BME280;37613;51.788;21.582;2023-07-20T20:50:26;99728.17;;;13.16;82.58
51530;BME280;37613;51.788;21.582;2023-07-20T20:54:29;99733.59;;;13.10;82.54
51530;BME280;37613;51.788;21.582;2023-07-20T20:58:34;99734.44;;;13.03;82.65
51530;BME280;37613;51.788;21.582;2023-07-20T21:02:36;99735.08;;;12.98;82.74
51530;BME280;37613;51.788;21.582;2023-07-20T21:06:40;99733.34;;;12.93;82.93
51530;BME280;37613;51.788;21.582;2023-07-20T21:10:45;99739.50;;;12.90;82.82
51530;BME280;37613;51.788;21.582;2023-07-20T21:14:46;99732.52;;;12.85;82.97
51530;BME280;37613;51.788;21.582;2023-07-20T21:18:48;99739.15;;;12.81;83.04
51530;BME280;37613;51.788;21.582;2023-07-20T21:22:49;99736.78;;;12.77;83.11
51530;BME280;37613;51.788;21.582;2023-07-20T21:26:50;99738.00;;;12.75;83.13
51530;BME280;37613;51.788;21.582;2023-07-20T21:31:02;99741.09;;;12.71;83.14
51530;BME280;37613;51.788;21.582;2023-07-20T21:35:08;99745.75;;;12.66;83.17
51530;BME280;37613;51.788;21.582;2023-07-20T21:39:12;99747.17;;;12.62;83.38
51530;BME280;37613;51.788;21.582;2023-07-20T21:43:13;99744.55;;;12.56;83.43
51530;BME280;37613;51.788;21.582;2023-07-20T21:47:15;99749.70;;;12.52;83.39
51530;BME280;37613;51.788;21.582;2023-07-20T21:51:19;99758.65;;;12.48;83.31
51530;BME280;37613;51.788;21.582;2023-07-20T21:55:24;99755.21;;;12.43;83.35
51530;BME280;37613;51.788;21.582;2023-07-20T21:59:26;99758.20;;;12.40;83.67
51530;BME280;37613;51.788;21.582;2023-07-20T22:03:49;99751.98;;;12.38;83.65
51530;BME280;37613;51.788;21.582;2023-07-20T22:07:50;99757.77;;;12.37;83.69
51530;BME280;37613;51.788;21.582;2023-07-20T22:11:52;99766.72;;;12.37;83.83
51530;BME280;37613;51.788;21.582;2023-07-20T22:15:53;99764.36;;;12.36;83.91
51530;BME280;37613;51.788;21.582;2023-07-20T22:19:57;99759.08;;;12.34;83.89
51530;BME280;37613;51.788;21.582;2023-07-20T22:23:59;99763.30;;;12.33;84.09
51530;BME280;37613;51.788;21.582;2023-07-20T22:28:00;99773.14;;;12.32;84.32
51530;BME280;37613;51.788;21.582;2023-07-20T22:32:03;99774.93;;;12.34;84.44
51530;BME280;37613;51.788;21.582;2023-07-20T22:36:08;99779.41;;;12.37;84.55
51530;BME280;37613;51.788;21.582;2023-07-20T22:40:09;99785.15;;;12.40;84.77
51530;BME280;37613;51.788;21.582;2023-07-20T22:44:14;99783.10;;;12.45;84.85
51530;BME280;37613;51.788;21.582;2023-07-20T22:48:20;99771.59;;;12.51;84.98
51530;BME280;37613;51.788;21.582;2023-07-20T22:52:27;99771.10;;;12.58;85.02
51530;BME280;37613;51.788;21.582;2023-07-20T22:56:29;99764.59;;;12.63;85.18
51530;BME280;37613;51.788;21.582;2023-07-20T23:00:32;99761.04;;;12.68;85.23
51530;BME280;37613;51.788;21.582;2023-07-20T23:04:33;99755.11;;;12.71;85.27
51530;BME280;37613;51.788;21.582;2023-07-20T23:08:40;99753.23;;;12.71;85.23
51530;BME280;37613;51.788;21.582;2023-07-20T23:12:43;99763.23;;;12.68;85.19
51530;BME280;37613;51.788;21.582;2023-07-20T23:16:46;99769.92;;;12.63;85.05
51530;BME280;37613;51.788;21.582;2023-07-20T23:20:48;99769.59;;;12.58;85.08
51530;BME280;37613;51.788;21.582;2023-07-20T23:24:49;99769.75;;;12.52;85.08
51530;BME280;37613;51.788;21.582;2023-07-20T23:28:53;99774.77;;;12.45;84.90
51530;BME280;37613;51.788;21.582;2023-07-20T23:32:54;99775.69;;;12.36;84.98
51530;BME280;37613;51.788;21.582;2023-07-20T23:36:56;99775.48;;;12.28;84.94
51530;BME280;37613;51.788;21.582;2023-07-20T23:41:00;99780.89;;;12.21;84.93
51530;BME280;37613;51.788;21.582;2023-07-20T23:45:02;99780.89;;;12.14;84.94
51530;BME280;37613;51.788;21.582;2023-07-20T23:49:21;99778.86;;;12.06;84.91
51530;BME280;37613;51.788;21.582;2023-07-20T23:53:24;99778.81;;;12.00;85.22
51530;BME280;37613;51.788;21.582;2023-07-20T23:57:26;99776.77;;;11.98;85.30
